Nissos Mykonos — SYJZ — position and weather

sailwx.info

Track history (hours):
 
Tides and Currents Weather Stations Pressure Air Temp Water Temp Dewpoint Dewpoint Depression Visibility Wind Speed Wind Dir Waves Ship Positions

Nissos Mykonos

Last reported at 2015-Sep-02 23:33 UTC. Time now 2015-Sep-02 23:55 UTC.
Position N 37°31' E 024°15'.

Length 141 m; draft 5.2 m.

Type: Passenger vessel. MMSI: 240389000.

Date/timePositionNaut miles runAvg speedWind from/ knotsBaromVisibWave heightAir tempDewpointWater temp
2015-Sep-02 23:33N 37°31' E 024°15'2723.7
2015-Sep-02 22:26N 37°19' E 024°45'2224.7
2015-Sep-02 21:33N 37°06' E 025°07'1110.9
2015-Sep-02 20:34N 37°08' E 025°20'1211.9
2015-Sep-02 19:33N 37°15' E 025°33'2524.7
2015-Sep-02 18:34N 37°32' E 025°55'1513.4
2015-Sep-02 17:24N 37°39' E 026°12'1612.4
2015-Sep-02 16:06N 37°43' E 026°32'22 5.7
2015-Sep-02 12:17N 37°39' E 026°06'1825.0
2015-Sep-02 11:33N 37°27' E 025°48'2524.8
2015-Sep-02 10:33N 37°10' E 025°25'1211.4
2015-Sep-02 09:33N 37°09' E 025°11'1110.8
2015-Sep-02 08:34N 37°12' E 024°58'7224.0
2015-Sep-02 05:33N 37°47' E 023°39'1010.0
2015-Sep-02 04:33N 37°57' E 023°38'0 0.0
2015-Sep-02 03:33N 37°57' E 023°38'0 0.0
2015-Sep-02 02:33N 37°57' E 023°38'0 0.0
2015-Sep-02 01:33N 37°57' E 023°38'0 0.0
2015-Sep-02 00:33N 37°57' E 023°38'0 0.0
2015-Sep-01 23:33N 37°57' E 023°38'0 0.0
2015-Sep-01 22:33N 37°57' E 023°38'0 0.0
2015-Sep-01 21:33N 37°57' E 023°38'6 5.6
2015-Sep-01 20:34N 37°51' E 023°40'7123.7
2015-Sep-01 17:34N 37°13' E 024°55'1312.7
2015-Sep-01 16:31N 37°05' E 025°09'1111.1
2015-Sep-01 15:33N 37°06' E 025°22'2019.8
2015-Sep-01 14:33N 37°22' E 025°38'8 2.6
2015-Sep-01 11:33N 37°27' E 025°45'2424.3
2015-Sep-01 10:34N 37°09' E 025°25'1110.9
2015-Sep-01 09:33N 37°09' E 025°11'9 8.9
2015-Sep-01 08:34N 37°10' E 024°60'7224.0
2015-Sep-01 05:33N 37°44' E 023°40'1212.3
2015-Sep-01 04:33N 37°57' E 023°38'0 0.0
2015-Sep-01 03:33N 37°57' E 023°38'0 0.0
2015-Sep-01 02:34N 37°57' E 023°38'0 0.0
2015-Sep-01 01:33N 37°57' E 023°38'1717.3
2015-Sep-01 00:34N 37°41' E 023°47'5123.9
2015-Aug-31 22:24N 37°19' E 024°45'2125.2
2015-Aug-31 21:34N 37°06' E 025°07'9 8.7
2015-Aug-31 20:34N 37°10' E 025°16'1010.4
2015-Aug-31 19:33N 37°13' E 025°29'2524.8
2015-Aug-31 18:33N 37°29' E 025°52'1914.8
2015-Aug-31 17:17N 37°39' E 026°13'19 6.6
2015-Aug-31 14:26N 37°45' E 026°35'1511.7
2015-Aug-31 13:12N 37°41' E 026°17'2816.9
2015-Aug-31 11:33N 37°27' E 025°47'2524.6
2015-Aug-31 10:34N 37°10' E 025°25'1211.4
2015-Aug-31 09:33N 37°09' E 025°11'8 8.5
2015-Aug-31 08:34N 37°10' E 025°00'7224.0
2015-Aug-31 05:34N 37°44' E 023°40'1312.5
2015-Aug-31 04:33N 37°57' E 023°38'0 0.0
2015-Aug-31 03:33N 37°57' E 023°38'0 0.0
2015-Aug-31 02:33N 37°57' E 023°38'0 0.0
2015-Aug-31 01:33N 37°57' E 023°38'0 0.0
2015-Aug-31 00:33N 37°57' E 023°38'0 0.0
2015-Aug-30 23:33N 37°57' E 023°38'0 0.0
2015-Aug-30 22:33N 37°57' E 023°38'0 0.0
2015-Aug-30 21:33N 37°57' E 023°38'6 6.4
2015-Aug-30 20:34N 37°50' E 023°40'7123.8
2015-Aug-30 17:34N 37°12' E 024°56'1211.9
2015-Aug-30 16:31N 37°05' E 025°09'1110.8
2015-Aug-30 15:32N 37°06' E 025°22'2121.0
2015-Aug-30 14:32N 37°23' E 025°39'2423.7
2015-Aug-30 13:33N 37°37' E 026°02'2 1.8
2015-Aug-30 12:20N 37°39' E 026°04'1924.2
2015-Aug-30 11:33N 37°26' E 025°46'2424.4
2015-Aug-30 10:34N 37°09' E 025°24'1212.0
2015-Aug-30 09:34N 37°08' E 025°09'7 7.2
2015-Aug-30 08:34N 37°10' E 025°01'7224.1
2015-Aug-30 05:34N 37°44' E 023°40'1312.6
2015-Aug-30 04:33N 37°57' E 023°38'0 0.0
2015-Aug-30 03:33N 37°57' E 023°38'0 0.0
2015-Aug-30 02:33N 37°57' E 023°38'0 0.0
2015-Aug-30 01:33N 37°57' E 023°38'0 0.0
2015-Aug-30 00:33N 37°57' E 023°38'0 0.0
2015-Aug-29 23:33N 37°57' E 023°38'0 0.0
2015-Aug-29 22:34N 37°57' E 023°38'0 0.0
2015-Aug-29 21:33N 37°57' E 023°38'6 6.3
2015-Aug-29 20:34N 37°50' E 023°40'7123.7
2015-Aug-29 17:33N 37°13' E 024°56'1311.7
2015-Aug-29 16:28N 37°05' E 025°09'1111.8
2015-Aug-29 15:33N 37°06' E 025°22'2221.9
2015-Aug-29 14:33N 37°23' E 025°40'2423.7
2015-Aug-29 13:32N 37°38' E 026°04'5 4.4
2015-Aug-29 12:29N 37°39' E 026°09'2324.1
2015-Aug-29 11:33N 37°27' E 025°45'2424.3
2015-Aug-29 10:34N 37°09' E 025°25'1111.2
2015-Aug-29 09:33N 37°09' E 025°11'8 7.7
2015-Aug-29 08:34N 37°09' E 025°01'7324.4
2015-Aug-29 05:34N 37°44' E 023°40'1212.3
2015-Aug-29 04:33N 37°57' E 023°38'0 0.0
2015-Aug-29 03:34N 37°57' E 023°38'0 0.0
2015-Aug-29 02:33N 37°57' E 023°38'0 0.0
2015-Aug-29 01:34N 37°57' E 023°38'0 0.0
2015-Aug-29 00:33N 37°57' E 023°38'0 0.0
2015-Aug-28 23:33N 37°57' E 023°38'1 0.6
2015-Aug-28 22:33N 37°56' E 023°38'2020.2
2015-Aug-28 21:34N 37°39' E 023°51'4824.1
2015-Aug-28 19:34N 37°32' E 024°51'2524.7
2015-Aug-28 18:33N 37°31' E 025°22'2424.1
2015-Aug-28 17:34N 37°30' E 025°52'2524.5
2015-Aug-28 16:33N 37°36' E 026°23'1312.8
2015-Aug-28 15:33N 37°45' E 026°34'6 5.8
2015-Aug-28 14:32N 37°48' E 026°41'1515.5
2015-Aug-28 13:33N 37°43' E 026°22'1211.6
2015-Aug-28 12:33N 37°39' E 026°09'2424.0
2015-Aug-28 11:33N 37°25' E 025°44'2423.7
2015-Aug-28 10:34N 37°08' E 025°24'1010.2
2015-Aug-28 09:33N 37°09' E 025°11'8 8.1
2015-Aug-28 08:34N 37°10' E 025°01'7324.2
2015-Aug-28 05:34N 37°44' E 023°40'1312.5
2015-Aug-28 04:33N 37°57' E 023°38'0 0.0
2015-Aug-28 03:33N 37°57' E 023°38'0 0.0
2015-Aug-28 02:33N 37°57' E 023°38'0 0.0
2015-Aug-28 01:33N 37°57' E 023°38'0 0.0
2015-Aug-28 00:33N 37°57' E 023°38'0 0.0
2015-Aug-27 23:33N 37°57' E 023°38'0 0.0
2015-Aug-27 22:33N 37°57' E 023°38'0 0.0
2015-Aug-27 21:33N 37°57' E 023°38'4 4.3
2015-Aug-27 20:34N 37°52' E 023°39'7223.9
2015-Aug-27 17:34N 37°13' E 024°55'1413.2
2015-Aug-27 16:30N 37°05' E 025°09'1111.4
2015-Aug-27 15:34N 37°06' E 025°22'1919.1
2015-Aug-27 14:33N 37°20' E 025°40'8 2.7
2015-Aug-27 11:33N 37°26' E 025°46'2424.1
2015-Aug-27 10:33N 37°09' E 025°25'1212.2
2015-Aug-27 09:32N 37°08' E 025°09'7 7.1
2015-Aug-27 08:34N 37°10' E 025°01'7224.1
2015-Aug-27 05:33N 37°44' E 023°40'1312.7
2015-Aug-27 04:33N 37°57' E 023°38'0 0.0
2015-Aug-27 03:33N 37°57' E 023°38'0 0.0
2015-Aug-27 02:34N 37°57' E 023°38'0 0.0
2015-Aug-27 01:34N 37°57' E 023°38'1818.3
2015-Aug-27 00:33N 37°40' E 023°49'4924.4
2015-Aug-26 22:32N 37°19' E 024°45'2324.0
2015-Aug-26 21:33N 37°05' E 025°09'1110.8
2015-Aug-26 20:33N 37°06' E 025°22'1717.1
2015-Aug-26 19:34N 37°19' E 025°37'29 4.0
2015-Aug-26 12:19N 37°41' E 026°00'1924.5
2015-Aug-26 11:33N 37°26' E 025°45'2423.8
2015-Aug-26 10:34N 37°09' E 025°25'1212.1
2015-Aug-26 09:33N 37°08' E 025°09'9 8.9
2015-Aug-26 08:34N 37°11' E 024°59'7123.6
2015-Aug-26 05:34N 37°44' E 023°40'1212.5
2015-Aug-26 04:33N 37°57' E 023°38'0 0.0
2015-Aug-26 03:33N 37°57' E 023°38'0 0.0
2015-Aug-26 02:33N 37°57' E 023°38'0 0.0
2015-Aug-26 01:33N 37°57' E 023°38'0 0.0
2015-Aug-26 00:33N 37°57' E 023°38'0 0.0
2015-Aug-25 23:33N 37°57' E 023°38'0 0.0
2015-Aug-25 22:33N 37°57' E 023°38'0 0.0
2015-Aug-25 21:34N 37°57' E 023°38'8 7.9
2015-Aug-25 20:33N 37°49' E 023°41'7123.8
2015-Aug-25 17:34N 37°12' E 024°57'10 9.7
2015-Aug-25 16:33N 37°06' E 025°08'1312.9
2015-Aug-25 15:34N 37°08' E 025°24'2525.1
2015-Aug-25 14:34N 37°27' E 025°44'1 0.4
2015-Aug-25 11:33N 37°26' E 025°45'2323.7
2015-Aug-25 10:34N 37°09' E 025°24'1111.0
2015-Aug-25 09:33N 37°09' E 025°11'8 8.1
2015-Aug-25 08:34N 37°10' E 025°00'7224.0
2015-Aug-25 05:34N 37°44' E 023°41'1312.6
2015-Aug-25 04:33N 37°57' E 023°38'0 0.0
2015-Aug-25 03:33N 37°57' E 023°38'0 0.0
2015-Aug-25 02:33N 37°57' E 023°38'6 5.8
2015-Aug-25 01:34N 37°51' E 023°40'2423.2
2015-Aug-25 00:31N 37°35' E 024°03'4824.2
2015-Aug-24 22:34N 37°13' E 024°55'1211.6
2015-Aug-24 21:33N 37°07' E 025°08'1212.4
2015-Aug-24 20:34N 37°08' E 025°23'2625.4
2015-Aug-24 19:33N 37°26' E 025°46'13 1.7
2015-Aug-24 12:09N 37°38' E 025°52'1423.7
2015-Aug-24 11:33N 37°27' E 025°42'2323.4
2015-Aug-24 10:34N 37°08' E 025°23'1211.6
2015-Aug-24 09:31N 37°07' E 025°08'9 9.1
2015-Aug-24 08:34N 37°11' E 024°58'7023.4
2015-Aug-24 05:34N 37°44' E 023°40'1212.5
2015-Aug-24 04:33N 37°57' E 023°38'0 0.0
2015-Aug-24 03:34N 37°57' E 023°38'0 0.0
2015-Aug-24 02:33N 37°57' E 023°38'0 0.0
2015-Aug-24 01:33N 37°57' E 023°38'0 0.0
2015-Aug-24 00:33N 37°57' E 023°38'  
Track history (hours):
 
Tides and Currents Weather Stations Pressure Air Temp Water Temp Dewpoint Dewpoint Depression Visibility Wind Speed Wind Dir Waves Ship Positions

Nissos Mykonos

Last reported at 2015-Sep-02 23:33 UTC. Time now 2015-Sep-02 23:55 UTC.
Position N 37°31' E 024°15'.

Length 141 m; draft 5.2 m.

Type: Passenger vessel. MMSI: 240389000.

Date/timePositionNaut miles runAvg speedWind from/ knotsBaromVisibWave heightAir tempDewpointWater temp
2015-Sep-02 23:33N 37°31' E 024°15'2723.7
2015-Sep-02 22:26N 37°19' E 024°45'2224.7
2015-Sep-02 21:33N 37°06' E 025°07'1110.9
2015-Sep-02 20:34N 37°08' E 025°20'1211.9
2015-Sep-02 19:33N 37°15' E 025°33'2524.7
2015-Sep-02 18:34N 37°32' E 025°55'1513.4
2015-Sep-02 17:24N 37°39' E 026°12'1612.4
2015-Sep-02 16:06N 37°43' E 026°32'22 5.7
2015-Sep-02 12:17N 37°39' E 026°06'1825.0
2015-Sep-02 11:33N 37°27' E 025°48'2524.8
2015-Sep-02 10:33N 37°10' E 025°25'1211.4
2015-Sep-02 09:33N 37°09' E 025°11'1110.8
2015-Sep-02 08:34N 37°12' E 024°58'7224.0
2015-Sep-02 05:33N 37°47' E 023°39'1010.0
2015-Sep-02 04:33N 37°57' E 023°38'0 0.0
2015-Sep-02 03:33N 37°57' E 023°38'0 0.0
2015-Sep-02 02:33N 37°57' E 023°38'0 0.0
2015-Sep-02 01:33N 37°57' E 023°38'0 0.0
2015-Sep-02 00:33N 37°57' E 023°38'0 0.0
2015-Sep-01 23:33N 37°57' E 023°38'0 0.0
2015-Sep-01 22:33N 37°57' E 023°38'0 0.0
2015-Sep-01 21:33N 37°57' E 023°38'6 5.6
2015-Sep-01 20:34N 37°51' E 023°40'7123.7
2015-Sep-01 17:34N 37°13' E 024°55'1312.7
2015-Sep-01 16:31N 37°05' E 025°09'1111.1
2015-Sep-01 15:33N 37°06' E 025°22'2019.8
2015-Sep-01 14:33N 37°22' E 025°38'8 2.6
2015-Sep-01 11:33N 37°27' E 025°45'2424.3
2015-Sep-01 10:34N 37°09' E 025°25'1110.9
2015-Sep-01 09:33N 37°09' E 025°11'9 8.9
2015-Sep-01 08:34N 37°10' E 024°60'7224.0
2015-Sep-01 05:33N 37°44' E 023°40'1212.3
2015-Sep-01 04:33N 37°57' E 023°38'0 0.0
2015-Sep-01 03:33N 37°57' E 023°38'0 0.0
2015-Sep-01 02:34N 37°57' E 023°38'0 0.0
2015-Sep-01 01:33N 37°57' E 023°38'1717.3
2015-Sep-01 00:34N 37°41' E 023°47'5123.9
2015-Aug-31 22:24N 37°19' E 024°45'2125.2
2015-Aug-31 21:34N 37°06' E 025°07'9 8.7
2015-Aug-31 20:34N 37°10' E 025°16'1010.4
2015-Aug-31 19:33N 37°13' E 025°29'2524.8
2015-Aug-31 18:33N 37°29' E 025°52'1914.8
2015-Aug-31 17:17N 37°39' E 026°13'19 6.6
2015-Aug-31 14:26N 37°45' E 026°35'1511.7
2015-Aug-31 13:12N 37°41' E 026°17'2816.9
2015-Aug-31 11:33N 37°27' E 025°47'2524.6
2015-Aug-31 10:34N 37°10' E 025°25'1211.4
2015-Aug-31 09:33N 37°09' E 025°11'8 8.5
2015-Aug-31 08:34N 37°10' E 025°00'7224.0
2015-Aug-31 05:34N 37°44' E 023°40'1312.5
2015-Aug-31 04:33N 37°57' E 023°38'0 0.0
2015-Aug-31 03:33N 37°57' E 023°38'0 0.0
2015-Aug-31 02:33N 37°57' E 023°38'0 0.0
2015-Aug-31 01:33N 37°57' E 023°38'0 0.0
2015-Aug-31 00:33N 37°57' E 023°38'0 0.0
2015-Aug-30 23:33N 37°57' E 023°38'0 0.0
2015-Aug-30 22:33N 37°57' E 023°38'0 0.0
2015-Aug-30 21:33N 37°57' E 023°38'6 6.4
2015-Aug-30 20:34N 37°50' E 023°40'7123.8
2015-Aug-30 17:34N 37°12' E 024°56'1211.9
2015-Aug-30 16:31N 37°05' E 025°09'1110.8
2015-Aug-30 15:32N 37°06' E 025°22'2121.0
2015-Aug-30 14:32N 37°23' E 025°39'2423.7
2015-Aug-30 13:33N 37°37' E 026°02'2 1.8
2015-Aug-30 12:20N 37°39' E 026°04'1924.2
2015-Aug-30 11:33N 37°26' E 025°46'2424.4
2015-Aug-30 10:34N 37°09' E 025°24'1212.0
2015-Aug-30 09:34N 37°08' E 025°09'7 7.2
2015-Aug-30 08:34N 37°10' E 025°01'7224.1
2015-Aug-30 05:34N 37°44' E 023°40'1312.6
2015-Aug-30 04:33N 37°57' E 023°38'0 0.0
2015-Aug-30 03:33N 37°57' E 023°38'0 0.0
2015-Aug-30 02:33N 37°57' E 023°38'0 0.0
2015-Aug-30 01:33N 37°57' E 023°38'0 0.0
2015-Aug-30 00:33N 37°57' E 023°38'0 0.0
2015-Aug-29 23:33N 37°57' E 023°38'0 0.0
2015-Aug-29 22:34N 37°57' E 023°38'0 0.0
2015-Aug-29 21:33N 37°57' E 023°38'6 6.3
2015-Aug-29 20:34N 37°50' E 023°40'7123.7
2015-Aug-29 17:33N 37°13' E 024°56'1311.7
2015-Aug-29 16:28N 37°05' E 025°09'1111.8
2015-Aug-29 15:33N 37°06' E 025°22'2221.9
2015-Aug-29 14:33N 37°23' E 025°40'2423.7
2015-Aug-29 13:32N 37°38' E 026°04'5 4.4
2015-Aug-29 12:29N 37°39' E 026°09'2324.1
2015-Aug-29 11:33N 37°27' E 025°45'2424.3
2015-Aug-29 10:34N 37°09' E 025°25'1111.2
2015-Aug-29 09:33N 37°09' E 025°11'8 7.7
2015-Aug-29 08:34N 37°09' E 025°01'7324.4
2015-Aug-29 05:34N 37°44' E 023°40'1212.3
2015-Aug-29 04:33N 37°57' E 023°38'0 0.0
2015-Aug-29 03:34N 37°57' E 023°38'0 0.0
2015-Aug-29 02:33N 37°57' E 023°38'0 0.0
2015-Aug-29 01:34N 37°57' E 023°38'0 0.0
2015-Aug-29 00:33N 37°57' E 023°38'0 0.0
2015-Aug-28 23:33N 37°57' E 023°38'1 0.6
2015-Aug-28 22:33N 37°56' E 023°38'2020.2
2015-Aug-28 21:34N 37°39' E 023°51'4824.1
2015-Aug-28 19:34N 37°32' E 024°51'2524.7
2015-Aug-28 18:33N 37°31' E 025°22'2424.1
2015-Aug-28 17:34N 37°30' E 025°52'2524.5
2015-Aug-28 16:33N 37°36' E 026°23'1312.8
2015-Aug-28 15:33N 37°45' E 026°34'6 5.8
2015-Aug-28 14:32N 37°48' E 026°41'1515.5
2015-Aug-28 13:33N 37°43' E 026°22'1211.6
2015-Aug-28 12:33N 37°39' E 026°09'2424.0
2015-Aug-28 11:33N 37°25' E 025°44'2423.7
2015-Aug-28 10:34N 37°08' E 025°24'1010.2
2015-Aug-28 09:33N 37°09' E 025°11'8 8.1
2015-Aug-28 08:34N 37°10' E 025°01'7324.2
2015-Aug-28 05:34N 37°44' E 023°40'1312.5
2015-Aug-28 04:33N 37°57' E 023°38'0 0.0
2015-Aug-28 03:33N 37°57' E 023°38'0 0.0
2015-Aug-28 02:33N 37°57' E 023°38'0 0.0
2015-Aug-28 01:33N 37°57' E 023°38'0 0.0
2015-Aug-28 00:33N 37°57' E 023°38'0 0.0
2015-Aug-27 23:33N 37°57' E 023°38'0 0.0
2015-Aug-27 22:33N 37°57' E 023°38'0 0.0
2015-Aug-27 21:33N 37°57' E 023°38'4 4.3
2015-Aug-27 20:34N 37°52' E 023°39'7223.9
2015-Aug-27 17:34N 37°13' E 024°55'1413.2
2015-Aug-27 16:30N 37°05' E 025°09'1111.4
2015-Aug-27 15:34N 37°06' E 025°22'1919.1
2015-Aug-27 14:33N 37°20' E 025°40'8 2.7
2015-Aug-27 11:33N 37°26' E 025°46'2424.1
2015-Aug-27 10:33N 37°09' E 025°25'1212.2
2015-Aug-27 09:32N 37°08' E 025°09'7 7.1
2015-Aug-27 08:34N 37°10' E 025°01'7224.1
2015-Aug-27 05:33N 37°44' E 023°40'1312.7
2015-Aug-27 04:33N 37°57' E 023°38'0 0.0
2015-Aug-27 03:33N 37°57' E 023°38'0 0.0
2015-Aug-27 02:34N 37°57' E 023°38'0 0.0
2015-Aug-27 01:34N 37°57' E 023°38'1818.3
2015-Aug-27 00:33N 37°40' E 023°49'4924.4
2015-Aug-26 22:32N 37°19' E 024°45'2324.0
2015-Aug-26 21:33N 37°05' E 025°09'1110.8
2015-Aug-26 20:33N 37°06' E 025°22'1717.1
2015-Aug-26 19:34N 37°19' E 025°37'29 4.0
2015-Aug-26 12:19N 37°41' E 026°00'1924.5
2015-Aug-26 11:33N 37°26' E 025°45'2423.8
2015-Aug-26 10:34N 37°09' E 025°25'1212.1
2015-Aug-26 09:33N 37°08' E 025°09'9 8.9
2015-Aug-26 08:34N 37°11' E 024°59'7123.6
2015-Aug-26 05:34N 37°44' E 023°40'1212.5
2015-Aug-26 04:33N 37°57' E 023°38'0 0.0
2015-Aug-26 03:33N 37°57' E 023°38'0 0.0
2015-Aug-26 02:33N 37°57' E 023°38'0 0.0
2015-Aug-26 01:33N 37°57' E 023°38'0 0.0
2015-Aug-26 00:33N 37°57' E 023°38'0 0.0
2015-Aug-25 23:33N 37°57' E 023°38'0 0.0
2015-Aug-25 22:33N 37°57' E 023°38'0 0.0
2015-Aug-25 21:34N 37°57' E 023°38'8 7.9
2015-Aug-25 20:33N 37°49' E 023°41'7123.8
2015-Aug-25 17:34N 37°12' E 024°57'10 9.7
2015-Aug-25 16:33N 37°06' E 025°08'1312.9
2015-Aug-25 15:34N 37°08' E 025°24'2525.1
2015-Aug-25 14:34N 37°27' E 025°44'1 0.4
2015-Aug-25 11:33N 37°26' E 025°45'2323.7
2015-Aug-25 10:34N 37°09' E 025°24'1111.0
2015-Aug-25 09:33N 37°09' E 025°11'8 8.1
2015-Aug-25 08:34N 37°10' E 025°00'7224.0
2015-Aug-25 05:34N 37°44' E 023°41'1312.6
2015-Aug-25 04:33N 37°57' E 023°38'0 0.0
2015-Aug-25 03:33N 37°57' E 023°38'0 0.0
2015-Aug-25 02:33N 37°57' E 023°38'6 5.8
2015-Aug-25 01:34N 37°51' E 023°40'2423.2
2015-Aug-25 00:31N 37°35' E 024°03'4824.2
2015-Aug-24 22:34N 37°13' E 024°55'1211.6
2015-Aug-24 21:33N 37°07' E 025°08'1212.4
2015-Aug-24 20:34N 37°08' E 025°23'2625.4
2015-Aug-24 19:33N 37°26' E 025°46'13 1.7
2015-Aug-24 12:09N 37°38' E 025°52'1423.7
2015-Aug-24 11:33N 37°27' E 025°42'2323.4
2015-Aug-24 10:34N 37°08' E 025°23'1211.6
2015-Aug-24 09:31N 37°07' E 025°08'9 9.1
2015-Aug-24 08:34N 37°11' E 024°58'7023.4
2015-Aug-24 05:34N 37°44' E 023°40'1212.5
2015-Aug-24 04:33N 37°57' E 023°38'0 0.0
2015-Aug-24 03:34N 37°57' E 023°38'0 0.0
2015-Aug-24 02:33N 37°57' E 023°38'0 0.0
2015-Aug-24 01:33N 37°57' E 023°38'0 0.0
2015-Aug-24 00:33N 37°57' E 023°38'  

Dump ship's entire track history